sensor_id;sensor_type;location;lat;lon;timestamp;P1;durP1;ratioP1;P2;durP2;ratioP2
15526;SDS011;7865;50.918;4.510;2023-04-25T00:02:43;25.60;;;5.30;;
15526;SDS011;7865;50.918;4.510;2023-04-25T00:07:45;17.80;;;5.20;;
15526;SDS011;7865;50.918;4.510;2023-04-25T00:12:46;15.07;;;4.90;;
15526;SDS011;7865;50.918;4.510;2023-04-25T00:17:49;15.60;;;5.07;;
15526;SDS011;7865;50.918;4.510;2023-04-25T00:22:50;11.53;;;4.60;;
15526;SDS011;7865;50.918;4.510;2023-04-25T00:27:53;18.27;;;5.93;;
15526;SDS011;7865;50.918;4.510;2023-04-25T00:32:55;15.03;;;4.43;;
15526;SDS011;7865;50.918;4.510;2023-04-25T00:37:56;21.57;;;4.87;;
15526;SDS011;7865;50.918;4.510;2023-04-25T00:42:58;21.13;;;5.03;;
15526;SDS011;7865;50.918;4.510;2023-04-25T00:47:59;15.93;;;4.60;;
15526;SDS011;7865;50.918;4.510;2023-04-25T00:53:01;16.33;;;4.83;;
15526;SDS011;7865;50.918;4.510;2023-04-25T00:58:04;20.17;;;5.93;;
15526;SDS011;7865;50.918;4.510;2023-04-25T01:03:05;20.53;;;5.30;;
15526;SDS011;7865;50.918;4.510;2023-04-25T01:08:07;17.17;;;5.37;;
15526;SDS011;7865;50.918;4.510;2023-04-25T01:13:08;18.23;;;5.37;;
15526;SDS011;7865;50.918;4.510;2023-04-25T01:18:10;17.23;;;5.50;;
15526;SDS011;7865;50.918;4.510;2023-04-25T01:23:13;17.00;;;5.57;;
15526;SDS011;7865;50.918;4.510;2023-04-25T01:28:14;16.33;;;5.43;;
15526;SDS011;7865;50.918;4.510;2023-04-25T01:33:17;24.53;;;6.20;;
15526;SDS011;7865;50.918;4.510;2023-04-25T01:38:22;19.77;;;5.80;;
15526;SDS011;7865;50.918;4.510;2023-04-25T01:43:23;16.70;;;4.97;;
15526;SDS011;7865;50.918;4.510;2023-04-25T01:48:24;15.10;;;5.73;;
15526;SDS011;7865;50.918;4.510;2023-04-25T01:53:26;12.57;;;5.73;;
15526;SDS011;7865;50.918;4.510;2023-04-25T01:58:27;24.73;;;7.07;;
15526;SDS011;7865;50.918;4.510;2023-04-25T02:03:45;15.10;;;5.37;;
15526;SDS011;7865;50.918;4.510;2023-04-25T02:08:56;17.97;;;6.23;;
15526;SDS011;7865;50.918;4.510;2023-04-25T02:13:58;21.80;;;5.83;;
15526;SDS011;7865;50.918;4.510;2023-04-25T02:19:17;17.90;;;6.20;;
15526;SDS011;7865;50.918;4.510;2023-04-25T02:24:18;13.43;;;5.60;;
15526;SDS011;7865;50.918;4.510;2023-04-25T02:29:20;27.90;;;6.37;;
15526;SDS011;7865;50.918;4.510;2023-04-25T02:34:21;14.63;;;5.80;;
15526;SDS011;7865;50.918;4.510;2023-04-25T02:39:23;15.80;;;5.73;;
15526;SDS011;7865;50.918;4.510;2023-04-25T02:44:26;21.97;;;5.67;;
15526;SDS011;7865;50.918;4.510;2023-04-25T02:49:27;20.10;;;7.07;;
15526;SDS011;7865;50.918;4.510;2023-04-25T02:54:28;22.37;;;7.77;;
15526;SDS011;7865;50.918;4.510;2023-04-25T02:59:31;18.80;;;6.17;;
15526;SDS011;7865;50.918;4.510;2023-04-25T03:04:33;21.57;;;6.03;;
15526;SDS011;7865;50.918;4.510;2023-04-25T03:09:34;20.20;;;7.73;;
15526;SDS011;7865;50.918;4.510;2023-04-25T03:14:36;22.17;;;6.20;;
15526;SDS011;7865;50.918;4.510;2023-04-25T03:19:38;18.50;;;6.03;;
15526;SDS011;7865;50.918;4.510;2023-04-25T03:24:40;18.50;;;6.93;;
15526;SDS011;7865;50.918;4.510;2023-04-25T03:29:41;19.13;;;5.27;;
15526;SDS011;7865;50.918;4.510;2023-04-25T03:34:44;26.00;;;5.97;;
15526;SDS011;7865;50.918;4.510;2023-04-25T03:39:45;24.90;;;5.03;;
15526;SDS011;7865;50.918;4.510;2023-04-25T03:44:48;21.77;;;5.50;;
15526;SDS011;7865;50.918;4.510;2023-04-25T03:49:49;14.43;;;4.63;;
15526;SDS011;7865;50.918;4.510;2023-04-25T03:54:56;12.93;;;5.33;;
15526;SDS011;7865;50.918;4.510;2023-04-25T03:59:59;13.93;;;4.90;;
15526;SDS011;7865;50.918;4.510;2023-04-25T04:05:03;14.13;;;4.63;;
15526;SDS011;7865;50.918;4.510;2023-04-25T04:10:09;12.57;;;5.53;;
15526;SDS011;7865;50.918;4.510;2023-04-25T04:15:13;14.90;;;5.10;;
15526;SDS011;7865;50.918;4.510;2023-04-25T04:20:17;13.47;;;5.10;;
15526;SDS011;7865;50.918;4.510;2023-04-25T04:25:19;12.10;;;4.73;;
15526;SDS011;7865;50.918;4.510;2023-04-25T04:30:44;16.53;;;4.27;;
15526;SDS011;7865;50.918;4.510;2023-04-25T04:35:46;19.57;;;5.03;;
15526;SDS011;7865;50.918;4.510;2023-04-25T04:40:48;11.27;;;4.53;;
15526;SDS011;7865;50.918;4.510;2023-04-25T04:46:02;15.60;;;5.17;;
15526;SDS011;7865;50.918;4.510;2023-04-25T04:51:15;13.50;;;4.77;;
15526;SDS011;7865;50.918;4.510;2023-04-25T04:56:37;15.70;;;5.37;;
15526;SDS011;7865;50.918;4.510;2023-04-25T05:01:57;14.53;;;5.47;;
15526;SDS011;7865;50.918;4.510;2023-04-25T05:07:22;12.13;;;5.13;;
15526;SDS011;7865;50.918;4.510;2023-04-25T05:12:43;11.00;;;5.10;;
15526;SDS011;7865;50.918;4.510;2023-04-25T05:17:52;15.80;;;5.17;;
15526;SDS011;7865;50.918;4.510;2023-04-25T05:23:07;20.07;;;6.07;;
15526;SDS011;7865;50.918;4.510;2023-04-25T05:28:17;18.03;;;5.50;;
15526;SDS011;7865;50.918;4.510;2023-04-25T05:33:39;18.80;;;5.63;;
15526;SDS011;7865;50.918;4.510;2023-04-25T05:38:41;17.83;;;6.37;;
15526;SDS011;7865;50.918;4.510;2023-04-25T05:43:48;15.90;;;7.33;;
15526;SDS011;7865;50.918;4.510;2023-04-25T05:48:58;17.13;;;6.20;;
15526;SDS011;7865;50.918;4.510;2023-04-25T05:54:25;17.83;;;6.37;;
15526;SDS011;7865;50.918;4.510;2023-04-25T05:59:28;16.00;;;7.57;;
15526;SDS011;7865;50.918;4.510;2023-04-25T06:04:30;17.60;;;7.23;;
15526;SDS011;7865;50.918;4.510;2023-04-25T06:09:33;22.07;;;7.00;;
15526;SDS011;7865;50.918;4.510;2023-04-25T06:14:35;19.73;;;7.17;;
15526;SDS011;7865;50.918;4.510;2023-04-25T06:19:36;19.47;;;7.03;;
15526;SDS011;7865;50.918;4.510;2023-04-25T06:24:38;22.27;;;6.83;;
15526;SDS011;7865;50.918;4.510;2023-04-25T06:29:40;17.47;;;6.43;;
15526;SDS011;7865;50.918;4.510;2023-04-25T06:34:42;13.27;;;5.53;;
15526;SDS011;7865;50.918;4.510;2023-04-25T06:39:44;17.93;;;7.10;;
15526;SDS011;7865;50.918;4.510;2023-04-25T06:44:45;16.57;;;7.10;;
15526;SDS011;7865;50.918;4.510;2023-04-25T06:49:48;18.57;;;6.83;;
15526;SDS011;7865;50.918;4.510;2023-04-25T06:54:49;17.00;;;7.50;;
15526;SDS011;7865;50.918;4.510;2023-04-25T07:00:07;19.77;;;7.07;;
15526;SDS011;7865;50.918;4.510;2023-04-25T07:05:11;16.70;;;7.17;;
15526;SDS011;7865;50.918;4.510;2023-04-25T07:10:13;17.07;;;6.90;;
15526;SDS011;7865;50.918;4.510;2023-04-25T07:15:14;14.67;;;5.70;;
15526;SDS011;7865;50.918;4.510;2023-04-25T07:20:19;13.27;;;5.57;;
15526;SDS011;7865;50.918;4.510;2023-04-25T07:25:21;15.93;;;5.93;;
15526;SDS011;7865;50.918;4.510;2023-04-25T07:30:23;15.87;;;5.03;;
15526;SDS011;7865;50.918;4.510;2023-04-25T07:35:25;16.33;;;4.97;;
15526;SDS011;7865;50.918;4.510;2023-04-25T07:40:26;10.13;;;4.13;;
15526;SDS011;7865;50.918;4.510;2023-04-25T07:45:33;12.87;;;4.17;;
15526;SDS011;7865;50.918;4.510;2023-04-25T07:50:36;15.30;;;2.97;;
15526;SDS011;7865;50.918;4.510;2023-04-25T07:55:38;9.43;;;2.83;;
15526;SDS011;7865;50.918;4.510;2023-04-25T08:00:46;7.07;;;3.70;;
15526;SDS011;7865;50.918;4.510;2023-04-25T08:06:12;13.73;;;3.70;;
15526;SDS011;7865;50.918;4.510;2023-04-25T08:11:23;8.63;;;3.40;;
15526;SDS011;7865;50.918;4.510;2023-04-25T08:16:26;12.17;;;3.43;;
15526;SDS011;7865;50.918;4.510;2023-04-25T08:21:28;7.30;;;2.43;;
15526;SDS011;7865;50.918;4.510;2023-04-25T08:26:33;14.43;;;3.70;;
15526;SDS011;7865;50.918;4.510;2023-04-25T08:31:36;11.53;;;4.20;;
15526;SDS011;7865;50.918;4.510;2023-04-25T08:36:39;12.10;;;4.47;;
15526;SDS011;7865;50.918;4.510;2023-04-25T08:42:02;10.20;;;3.60;;
15526;SDS011;7865;50.918;4.510;2023-04-25T08:47:09;8.60;;;2.87;;
15526;SDS011;7865;50.918;4.510;2023-04-25T08:52:17;12.40;;;3.30;;
15526;SDS011;7865;50.918;4.510;2023-04-25T08:57:23;9.37;;;4.17;;
15526;SDS011;7865;50.918;4.510;2023-04-25T09:02:26;9.03;;;3.00;;
15526;SDS011;7865;50.918;4.510;2023-04-25T09:07:28;8.27;;;3.10;;
15526;SDS011;7865;50.918;4.510;2023-04-25T09:12:30;9.37;;;3.30;;
15526;SDS011;7865;50.918;4.510;2023-04-25T09:17:32;11.80;;;3.53;;
15526;SDS011;7865;50.918;4.510;2023-04-25T09:22:36;6.60;;;2.23;;
15526;SDS011;7865;50.918;4.510;2023-04-25T09:27:51;8.97;;;2.60;;
15526;SDS011;7865;50.918;4.510;2023-04-25T09:33:06;8.70;;;2.80;;
15526;SDS011;7865;50.918;4.510;2023-04-25T09:38:13;7.80;;;2.97;;
15526;SDS011;7865;50.918;4.510;2023-04-25T09:43:41;11.13;;;2.30;;
15526;SDS011;7865;50.918;4.510;2023-04-25T09:48:50;5.10;;;2.70;;
15526;SDS011;7865;50.918;4.510;2023-04-25T09:54:00;8.87;;;2.00;;
15526;SDS011;7865;50.918;4.510;2023-04-25T09:59:15;6.20;;;1.97;;
15526;SDS011;7865;50.918;4.510;2023-04-25T10:04:22;8.40;;;2.47;;
15526;SDS011;7865;50.918;4.510;2023-04-25T10:09:33;7.43;;;2.33;;
15526;SDS011;7865;50.918;4.510;2023-04-25T10:14:37;6.57;;;2.13;;
15526;SDS011;7865;50.918;4.510;2023-04-25T10:19:39;5.33;;;1.80;;
15526;SDS011;7865;50.918;4.510;2023-04-25T10:24:40;5.47;;;1.95;;
15526;SDS011;7865;50.918;4.510;2023-04-25T10:29:42;8.30;;;2.47;;
15526;SDS011;7865;50.918;4.510;2023-04-25T10:34:44;8.30;;;2.42;;
15526;SDS011;7865;50.918;4.510;2023-04-25T10:39:49;5.90;;;1.75;;
15526;SDS011;7865;50.918;4.510;2023-04-25T10:45:00;7.50;;;2.00;;
15526;SDS011;7865;50.918;4.510;2023-04-25T10:50:05;7.25;;;1.60;;
15526;SDS011;7865;50.918;4.510;2023-04-25T10:55:08;6.07;;;2.15;;
15526;SDS011;7865;50.918;4.510;2023-04-25T11:00:12;5.00;;;1.77;;
15526;SDS011;7865;50.918;4.510;2023-04-25T11:05:37;2.17;;;1.70;;
15526;SDS011;7865;50.918;4.510;2023-04-25T11:10:58;7.57;;;2.30;;
15526;SDS011;7865;50.918;4.510;2023-04-25T11:15:59;11.23;;;2.40;;
15526;SDS011;7865;50.918;4.510;2023-04-25T11:21:13;8.47;;;2.53;;
15526;SDS011;7865;50.918;4.510;2023-04-25T11:26:15;8.43;;;2.60;;
15526;SDS011;7865;50.918;4.510;2023-04-25T11:31:19;6.13;;;2.00;;
15526;SDS011;7865;50.918;4.510;2023-04-25T11:36:22;7.13;;;1.77;;
15526;SDS011;7865;50.918;4.510;2023-04-25T11:41:25;5.40;;;1.40;;
15526;SDS011;7865;50.918;4.510;2023-04-25T11:46:27;4.03;;;1.63;;
15526;SDS011;7865;50.918;4.510;2023-04-25T11:51:28;3.17;;;1.60;;
15526;SDS011;7865;50.918;4.510;2023-04-25T11:56:31;6.10;;;1.53;;
15526;SDS011;7865;50.918;4.510;2023-04-25T12:01:37;4.83;;;1.30;;
15526;SDS011;7865;50.918;4.510;2023-04-25T12:06:40;4.20;;;1.70;;
15526;SDS011;7865;50.918;4.510;2023-04-25T12:11:43;4.60;;;1.25;;
15526;SDS011;7865;50.918;4.510;2023-04-25T12:16:55;3.13;;;1.08;;
15526;SDS011;7865;50.918;4.510;2023-04-25T12:21:58;2.47;;;1.00;;
15526;SDS011;7865;50.918;4.510;2023-04-25T12:27:02;2.20;;;0.90;;
15526;SDS011;7865;50.918;4.510;2023-04-25T12:32:05;5.33;;;1.33;;
15526;SDS011;7865;50.918;4.510;2023-04-25T12:37:06;2.07;;;0.80;;
15526;SDS011;7865;50.918;4.510;2023-04-25T12:42:08;2.00;;;0.90;;
15526;SDS011;7865;50.918;4.510;2023-04-25T12:47:12;3.47;;;1.23;;
15526;SDS011;7865;50.918;4.510;2023-04-25T12:52:14;5.43;;;1.10;;
15526;SDS011;7865;50.918;4.510;2023-04-25T12:57:15;3.07;;;1.23;;
15526;SDS011;7865;50.918;4.510;2023-04-25T13:02:17;5.40;;;1.37;;
15526;SDS011;7865;50.918;4.510;2023-04-25T13:07:18;6.57;;;1.30;;
15526;SDS011;7865;50.918;4.510;2023-04-25T13:12:19;6.93;;;1.40;;
15526;SDS011;7865;50.918;4.510;2023-04-25T13:17:21;4.65;;;1.33;;
15526;SDS011;7865;50.918;4.510;2023-04-25T13:22:22;4.07;;;1.20;;
15526;SDS011;7865;50.918;4.510;2023-04-25T13:27:24;4.82;;;1.33;;
15526;SDS011;7865;50.918;4.510;2023-04-25T13:32:25;4.72;;;1.30;;
15526;SDS011;7865;50.918;4.510;2023-04-25T13:37:27;4.00;;;1.40;;
15526;SDS011;7865;50.918;4.510;2023-04-25T13:42:31;5.93;;;1.42;;
15526;SDS011;7865;50.918;4.510;2023-04-25T13:47:33;4.82;;;1.20;;
15526;SDS011;7865;50.918;4.510;2023-04-25T13:52:36;5.07;;;1.67;;
15526;SDS011;7865;50.918;4.510;2023-04-25T13:57:37;4.38;;;1.10;;
15526;SDS011;7865;50.918;4.510;2023-04-25T14:02:41;2.10;;;0.90;;
15526;SDS011;7865;50.918;4.510;2023-04-25T14:07:43;1.75;;;0.88;;
15526;SDS011;7865;50.918;4.510;2023-04-25T14:12:44;3.27;;;1.33;;
15526;SDS011;7865;50.918;4.510;2023-04-25T14:17:45;1.23;;;1.00;;
15526;SDS011;7865;50.918;4.510;2023-04-25T14:22:49;2.63;;;1.23;;
15526;SDS011;7865;50.918;4.510;2023-04-25T14:27:50;5.40;;;1.37;;
15526;SDS011;7865;50.918;4.510;2023-04-25T14:32:51;3.60;;;1.55;;
15526;SDS011;7865;50.918;4.510;2023-04-25T14:37:53;5.53;;;0.95;;
15526;SDS011;7865;50.918;4.510;2023-04-25T14:42:54;3.17;;;1.25;;
15526;SDS011;7865;50.918;4.510;2023-04-25T14:47:56;2.13;;;0.90;;
15526;SDS011;7865;50.918;4.510;2023-04-25T14:52:58;3.13;;;1.13;;
15526;SDS011;7865;50.918;4.510;2023-04-25T14:58:01;4.38;;;1.17;;
15526;SDS011;7865;50.918;4.510;2023-04-25T15:03:02;2.60;;;0.88;;
15526;SDS011;7865;50.918;4.510;2023-04-25T15:08:05;4.43;;;1.40;;
15526;SDS011;7865;50.918;4.510;2023-04-25T15:13:06;1.95;;;1.02;;
15526;SDS011;7865;50.918;4.510;2023-04-25T15:18:08;3.40;;;1.10;;
15526;SDS011;7865;50.918;4.510;2023-04-25T15:23:09;3.13;;;1.30;;
15526;SDS011;7865;50.918;4.510;2023-04-25T15:28:11;3.20;;;1.10;;
15526;SDS011;7865;50.918;4.510;2023-04-25T15:33:14;5.97;;;1.00;;
15526;SDS011;7865;50.918;4.510;2023-04-25T15:38:16;5.60;;;1.30;;
15526;SDS011;7865;50.918;4.510;2023-04-25T15:43:17;3.70;;;1.00;;
15526;SDS011;7865;50.918;4.510;2023-04-25T15:48:18;4.57;;;0.87;;
15526;SDS011;7865;50.918;4.510;2023-04-25T15:53:20;1.33;;;0.93;;
15526;SDS011;7865;50.918;4.510;2023-04-25T15:58:21;3.97;;;1.03;;
15526;SDS011;7865;50.918;4.510;2023-04-25T16:03:22;1.93;;;0.70;;
15526;SDS011;7865;50.918;4.510;2023-04-25T16:08:24;7.53;;;1.30;;
15526;SDS011;7865;50.918;4.510;2023-04-25T16:13:26;5.17;;;1.10;;
15526;SDS011;7865;50.918;4.510;2023-04-25T16:18:27;4.27;;;1.37;;
15526;SDS011;7865;50.918;4.510;2023-04-25T16:23:29;1.30;;;0.90;;
15526;SDS011;7865;50.918;4.510;2023-04-25T16:28:31;3.90;;;1.37;;
15526;SDS011;7865;50.918;4.510;2023-04-25T16:33:33;1.43;;;0.90;;
15526;SDS011;7865;50.918;4.510;2023-04-25T16:38:34;6.43;;;1.20;;
15526;SDS011;7865;50.918;4.510;2023-04-25T16:43:36;6.27;;;1.20;;
15526;SDS011;7865;50.918;4.510;2023-04-25T16:48:40;5.80;;;1.27;;
15526;SDS011;7865;50.918;4.510;2023-04-25T16:53:42;4.97;;;1.47;;
15526;SDS011;7865;50.918;4.510;2023-04-25T16:58:43;3.57;;;1.17;;
15526;SDS011;7865;50.918;4.510;2023-04-25T17:03:45;3.57;;;1.40;;
15526;SDS011;7865;50.918;4.510;2023-04-25T17:08:47;2.47;;;1.37;;
15526;SDS011;7865;50.918;4.510;2023-04-25T17:13:48;5.27;;;1.27;;
15526;SDS011;7865;50.918;4.510;2023-04-25T17:18:51;6.07;;;1.50;;
15526;SDS011;7865;50.918;4.510;2023-04-25T17:23:52;6.83;;;1.27;;
15526;SDS011;7865;50.918;4.510;2023-04-25T17:28:54;5.53;;;1.30;;
15526;SDS011;7865;50.918;4.510;2023-04-25T17:33:56;3.13;;;0.90;;
15526;SDS011;7865;50.918;4.510;2023-04-25T17:38:57;3.60;;;1.30;;
15526;SDS011;7865;50.918;4.510;2023-04-25T17:43:59;5.80;;;1.50;;
15526;SDS011;7865;50.918;4.510;2023-04-25T17:49:00;4.17;;;1.23;;
15526;SDS011;7865;50.918;4.510;2023-04-25T17:54:02;5.80;;;1.27;;
15526;SDS011;7865;50.918;4.510;2023-04-25T17:59:03;3.47;;;1.20;;
15526;SDS011;7865;50.918;4.510;2023-04-25T18:04:05;4.27;;;1.40;;
15526;SDS011;7865;50.918;4.510;2023-04-25T18:09:06;6.27;;;1.53;;
15526;SDS011;7865;50.918;4.510;2023-04-25T18:14:15;4.50;;;1.40;;
15526;SDS011;7865;50.918;4.510;2023-04-25T18:19:17;6.70;;;1.63;;
15526;SDS011;7865;50.918;4.510;2023-04-25T18:24:22;4.47;;;1.50;;
15526;SDS011;7865;50.918;4.510;2023-04-25T18:29:26;5.77;;;1.43;;
15526;SDS011;7865;50.918;4.510;2023-04-25T18:34:31;3.63;;;1.33;;
15526;SDS011;7865;50.918;4.510;2023-04-25T18:39:32;6.47;;;1.60;;
15526;SDS011;7865;50.918;4.510;2023-04-25T18:44:34;7.30;;;1.80;;
15526;SDS011;7865;50.918;4.510;2023-04-25T18:49:39;5.53;;;1.90;;
15526;SDS011;7865;50.918;4.510;2023-04-25T18:54:40;5.97;;;1.50;;
15526;SDS011;7865;50.918;4.510;2023-04-25T18:59:42;3.23;;;1.40;;
15526;SDS011;7865;50.918;4.510;2023-04-25T19:04:46;5.67;;;1.37;;
15526;SDS011;7865;50.918;4.510;2023-04-25T19:09:47;3.37;;;1.23;;
15526;SDS011;7865;50.918;4.510;2023-04-25T19:14:49;4.57;;;1.60;;
15526;SDS011;7865;50.918;4.510;2023-04-25T19:19:50;2.97;;;1.23;;
15526;SDS011;7865;50.918;4.510;2023-04-25T19:24:52;8.73;;;1.73;;
15526;SDS011;7865;50.918;4.510;2023-04-25T19:30:10;6.60;;;2.30;;
15526;SDS011;7865;50.918;4.510;2023-04-25T19:35:12;3.07;;;1.77;;
15526;SDS011;7865;50.918;4.510;2023-04-25T19:40:14;4.17;;;1.93;;
15526;SDS011;7865;50.918;4.510;2023-04-25T19:45:16;7.93;;;1.80;;
15526;SDS011;7865;50.918;4.510;2023-04-25T19:50:18;5.93;;;1.70;;
15526;SDS011;7865;50.918;4.510;2023-04-25T19:55:21;6.27;;;1.57;;
15526;SDS011;7865;50.918;4.510;2023-04-25T20:00:23;8.93;;;1.93;;
15526;SDS011;7865;50.918;4.510;2023-04-25T20:05:25;8.47;;;2.07;;
15526;SDS011;7865;50.918;4.510;2023-04-25T20:10:27;6.90;;;2.27;;
15526;SDS011;7865;50.918;4.510;2023-04-25T20:15:28;7.07;;;2.40;;
15526;SDS011;7865;50.918;4.510;2023-04-25T20:20:30;6.73;;;2.33;;
15526;SDS011;7865;50.918;4.510;2023-04-25T20:25:31;10.60;;;2.57;;
15526;SDS011;7865;50.918;4.510;2023-04-25T20:30:33;8.63;;;2.60;;
15526;SDS011;7865;50.918;4.510;2023-04-25T20:35:34;9.33;;;2.87;;
15526;SDS011;7865;50.918;4.510;2023-04-25T20:40:36;9.03;;;3.03;;
15526;SDS011;7865;50.918;4.510;2023-04-25T20:45:38;8.07;;;3.30;;
15526;SDS011;7865;50.918;4.510;2023-04-25T20:50:40;5.53;;;3.20;;
15526;SDS011;7865;50.918;4.510;2023-04-25T20:55:42;5.73;;;2.40;;
15526;SDS011;7865;50.918;4.510;2023-04-25T21:00:44;18.03;;;3.30;;
15526;SDS011;7865;50.918;4.510;2023-04-25T21:05:47;6.87;;;3.50;;
15526;SDS011;7865;50.918;4.510;2023-04-25T21:10:48;10.20;;;3.10;;
15526;SDS011;7865;50.918;4.510;2023-04-25T21:15:49;11.27;;;3.50;;
15526;SDS011;7865;50.918;4.510;2023-04-25T21:20:51;12.23;;;2.93;;
15526;SDS011;7865;50.918;4.510;2023-04-25T21:25:53;11.87;;;3.20;;
15526;SDS011;7865;50.918;4.510;2023-04-25T21:30:54;6.37;;;2.90;;
15526;SDS011;7865;50.918;4.510;2023-04-25T21:35:55;4.97;;;3.17;;
15526;SDS011;7865;50.918;4.510;2023-04-25T21:40:57;11.17;;;4.10;;
15526;SDS011;7865;50.918;4.510;2023-04-25T21:45:59;7.33;;;3.67;;
15526;SDS011;7865;50.918;4.510;2023-04-25T21:51:20;9.93;;;3.70;;
15526;SDS011;7865;50.918;4.510;2023-04-25T21:56:22;8.40;;;3.87;;
15526;SDS011;7865;50.918;4.510;2023-04-25T22:01:24;9.97;;;4.07;;
15526;SDS011;7865;50.918;4.510;2023-04-25T22:06:26;11.03;;;6.03;;
15526;SDS011;7865;50.918;4.510;2023-04-25T22:11:28;9.80;;;4.93;;
15526;SDS011;7865;50.918;4.510;2023-04-25T22:16:29;14.30;;;6.27;;
15526;SDS011;7865;50.918;4.510;2023-04-25T22:21:31;17.23;;;5.70;;
15526;SDS011;7865;50.918;4.510;2023-04-25T22:26:32;12.43;;;5.40;;
15526;SDS011;7865;50.918;4.510;2023-04-25T22:31:34;8.87;;;5.57;;
15526;SDS011;7865;50.918;4.510;2023-04-25T22:36:35;11.97;;;6.27;;
15526;SDS011;7865;50.918;4.510;2023-04-25T22:41:37;15.23;;;5.73;;
15526;SDS011;7865;50.918;4.510;2023-04-25T22:46:38;16.07;;;5.23;;
15526;SDS011;7865;50.918;4.510;2023-04-25T22:51:40;13.77;;;5.33;;
15526;SDS011;7865;50.918;4.510;2023-04-25T22:56:42;8.23;;;5.03;;
15526;SDS011;7865;50.918;4.510;2023-04-25T23:01:43;8.13;;;4.77;;
15526;SDS011;7865;50.918;4.510;2023-04-25T23:06:45;8.30;;;5.30;;
15526;SDS011;7865;50.918;4.510;2023-04-25T23:11:46;13.67;;;6.03;;
15526;SDS011;7865;50.918;4.510;2023-04-25T23:16:48;17.30;;;5.50;;
15526;SDS011;7865;50.918;4.510;2023-04-25T23:21:49;14.40;;;6.87;;
15526;SDS011;7865;50.918;4.510;2023-04-25T23:26:51;10.00;;;6.10;;
15526;SDS011;7865;50.918;4.510;2023-04-25T23:31:52;23.03;;;9.27;;
15526;SDS011;7865;50.918;4.510;2023-04-25T23:36:54;20.40;;;9.57;;
15526;SDS011;7865;50.918;4.510;2023-04-25T23:41:55;24.67;;;9.77;;
15526;SDS011;7865;50.918;4.510;2023-04-25T23:46:57;16.50;;;7.83;;
15526;SDS011;7865;50.918;4.510;2023-04-25T23:51:59;17.60;;;7.37;;
15526;SDS011;7865;50.918;4.510;2023-04-25T23:57:00;17.03;;;8.17;;
